Tiempo atmosférico en la estación meteorológica de Amieva, Panizales, Asturias (360 m.)



Fecha
DESCASC
Temp. máxima en grados centígrados (hora)
DESCASC
Temp. mínima en grados centígrados (hora)
DESCASC
Temp. media en grados centígrados
DESCASC
Racha de viento máxima en m/sg (hora)
DESCASC
Velocidad máxima media en intervalos de 10 minutos(hora)
DESCASC
Precipitaciones diarias en mm
DESCASC
Precipitaciones de 00:00 a 06:00 en mm
DESCASC
Precipitaciones de 06:00 a 12:00 en mm
DESCASC
Precipitaciones de 12:00 a 18:00 en mm
DESCASC
Precipitaciones de 18:00 a 24:00 en mm
DESCASC
22-08-2019 27.5 (17:10) 10.8 (07:50) 19.2 6.67 (14:50) 3.06 (14:40) 0 0 0 0 0
21-08-2019 24.3 (15:30) 11.3 (07:10) 17.8 7.22 (14:30) 3.33 (14:30) 0 0 0 0 0
20-08-2019 20.7 (16:40) 13.3 (07:00) 17 6.11 (16:30) 2.78 (12:20) 1.2 1 0.2 0 0
19-08-2019 17.1 (16:30) 13.1 (05:00) 15.1 4.72 (18:00) 2.22 (12:50) 3.2 1.2 0 1.8 0.2
18-08-2019 17.9 (11:30) 13.5 (00:00) 15.7 4.17 (16:40) 1.67 (12:40) 6 0 0.2 4.6 1.2
17-08-2019 29.7 (15:30) 14.6 (00:00) 22.2 6.67 (14:50) 3.06 (13:10) 0 0 0 0 0
16-08-2019 28 (17:10) 11.6 (00:00) 19.8 6.39 (14:20) 3.06 (17:30) 0 0 0 0 0
15-08-2019 23.6 (15:30) 15.6 (00:00) 19.6 7.22 (15:00) 3.61 (15:00) 0 0 0 0 0
14-08-2019 26.8 (16:30) 11.9 (00:00) 19.3 6.67 (17:20) 2.78 (16:50) 0 0 0 0 0
13-08-2019 23.3 (15:40) 8.9 (00:00) 16.1 8.89 (16:20) 3.61 (16:20) 0 0 0 0 0
12-08-2019 19.9 (16:40) 9.5 (00:00) 14.7 6.94 (17:00) 3.06 (17:00) 0.2 0 0 0.2 0
11-08-2019 19.2 (14:30) 11.2 (00:00) 15.2 7.5 (16:30) 3.06 (17:00) 12 0 0 6.8 5.2
10-08-2019 23.4 (13:10) 14 (00:00) 18.7 7.5 (15:00) 3.89 (16:40) 0 0 0 0 0
09-08-2019 27.4 (00:30) 16.9 (00:00) 22.1 12.78 (00:10) 5.56 (00:10) 0 0 0 0 0
08-08-2019 30.6 (14:50) 17.6 (00:00) 24.1 14.17 (17:50) 6.39 (17:10) 0 0 0 0 0
07-08-2019 26.1 (15:00) 14.5 (00:00) 20.3 6.67 (13:20) 3.33 (13:20) 0.2 0.2 0 0 0
06-08-2019 25.9 (13:10) 16.4 (00:00) 21.1 5.56 (18:30) 2.78 (14:50) 5.2 0 0 0 5.2
05-08-2019 26.5 (15:10) 17.1 (00:00) 21.8 6.11 (14:30) 3.06 (15:20) 0 0 0 0 0
04-08-2019 21.5 (16:50) 17.2 (00:00) 19.4 4.72 (12:00) 2.22 (12:00) 0 0 0 0 0
03-08-2019 26.4 (16:40) 13 (00:00) 19.7 6.94 (13:30) 3.61 (14:40) 0 0 0 0 0
02-08-2019 26 (16:20) 12 (00:00) 19 6.39 (16:00) 3.33 (13:40) 0 0 0 0 0
01-08-2019 24.2 (14:40) 15.3 (00:00) 19.8 6.39 (17:50) 2.78 (16:10) 0 0 0 0 0
31-07-2019 22.3 (14:50) 9.9 (00:00) 16.1 6.67 (15:00) 3.33 (15:00) 0 0 0 0 0
30-07-2019 22.8 (16:30) 10.7 (00:00) 16.7 8.33 (16:40) 3.89 (16:10) 0 0 0 0 0
29-07-2019 22 (12:30) 12.7 (00:00) 17.3 6.39 (11:30) 2.78 (11:30) 0 0 0 0 0
28-07-2019 23.8 (16:10) 10.1 (00:00) 16.9 7.78 (16:30) 3.61 (16:20) 0 0 0 0 0
27-07-2019 19.2 (15:20) 13.1 (00:00) 16.2 5.56 (16:00) 2.78 (16:20) 3.6 0.6 2.6 0.4 0
26-07-2019 18 (16:30) 13.1 (00:00) 15.6 4.72 (17:10) 2.22 (08:00) 26.2 12 11 1 2.2
25-07-2019 27 (13:30) 16.8 (00:00) 21.9 8.89 (16:10) 3.33 (12:50) 0.4 0 0 0 0.4
24-07-2019 29.7 (16:50) 18.6 (00:00) 24.2 6.39 (13:30) 2.78 (13:10) 0 0 0 0 0

Gráficas

Temp. máximas Temp. mínimas Temp. medias Precipitaciones Rachas de viento máximas Velocidades máximas media en intervalos de 10 minutos

Datos horarios

Fecha y hora oficial Temperatura (ºC) Velocidad del viento (km/h) Dirección del viento Racha (km/h) Dirección de racha Precipitación (mm) Presión (hPa) Tendencia (hPa) Humedad (%)
2019-08-22 23:00:00 16.5 0 Calma 4 Sudeste 0 -- -- 96
2019-08-22 22:00:00 17.9 3 Sudeste 5 Sudeste 0 -- -- 93
2019-08-22 21:00:00 20.1 0 Calma 9 Oeste 0 -- -- 86
2019-08-22 20:00:00 24.5 5 Oeste 18 Oeste 0 -- -- 69
2019-08-22 19:00:00 26.4 5 Sudoeste 16 Oeste 0 -- -- 63
2019-08-22 18:00:00 27.4 6 Sudoeste 22 Sudoeste 0 -- -- 60
2019-08-22 17:00:00 27.3 7 Sudoeste 17 Sudoeste 0 -- -- 58
2019-08-22 16:00:00 26.6 7 Oeste 24 Sudoeste 0 -- -- 54
2019-08-22 15:00:00 25.9 11 Sudoeste 24 Oeste 0 -- -- 55
2019-08-22 14:00:00 25.1 10 Sudoeste 18 Sudoeste 0 -- -- 55
2019-08-22 13:00:00 23 6 Sudoeste 15 Sudoeste 0 -- -- 60
2019-08-22 12:00:00 21 4 Sudoeste 8 Sudoeste 0 -- -- 69
2019-08-22 11:00:00 18 2 Oeste 5 Oeste 0 -- -- 76
2019-08-22 10:00:00 14.2 2 Oeste 6 Noroeste 0 -- -- 93
2019-08-22 09:00:00 11.2 2 Norte 5 Sudoeste 0 -- -- 99
2019-08-22 08:00:00 10.8 2 Norte 5 Norte 0 -- -- 100
2019-08-22 07:00:00 11.4 2 Noroeste 6 Oeste 0 -- -- 99
2019-08-22 06:00:00 12.2 2 Sur 8 Sur 0 -- -- 100
2019-08-22 05:00:00 12.7 0 Calma 4 Nordeste 0 -- -- 100
2019-08-22 04:00:00 13.3 3 Nordeste 4 Nordeste 0 -- -- 99
2019-08-22 03:00:00 14.5 0 Calma 4 Nordeste 0 -- -- 98
2019-08-22 02:00:00 15.3 0 Calma 3 Nordeste 0 -- -- 100
2019-08-22 01:00:00 14 0 Calma 5 Nordeste 0 -- -- 99
2019-08-22 00:00:00 14.9 3 Nordeste 5 Nordeste 0 -- -- 99
2019-08-21 23:00:00 16 2 Norte 8 Noroeste 0 -- -- 94
2019-08-21 22:00:00 18.5 3 Noroeste 9 Norte 0 -- -- 88
2019-08-21 21:00:00 19.3 2 Nordeste 12 Oeste 0 -- -- 85
2019-08-21 20:00:00 20.1 5 Noroeste 15 Oeste 0 -- -- 81
2019-08-21 19:00:00 21.1 6 Noroeste 19 Noroeste 0 -- -- 77
2019-08-21 18:00:00 23.4 8 Nordeste 21 Oeste 0 -- -- 73
2019-08-21 17:00:00 23.5 5 Sudeste 22 Sudoeste 0 -- -- 70
2019-08-21 16:00:00 24.3 11 Sudoeste 23 Oeste 0 -- -- 68
2019-08-21 15:00:00 23.6 12 Sudoeste 26 Oeste 0 -- -- 65
2019-08-21 14:00:00 22.7 9 Sudoeste 18 Sudoeste 0 -- -- 71
2019-08-21 13:00:00 20.7 5 Noroeste 16 Sudoeste 0 -- -- 69
2019-08-21 12:00:00 18.8 6 Oeste 13 Oeste 0 -- -- 78
2019-08-21 11:00:00 15.5 0 Calma 5 Este 0 -- -- 87
2019-08-21 10:00:00 14.1 0 Calma 4 Este 0 -- -- 98
2019-08-21 09:00:00 12.4 0 Calma 3 Nordeste 0 -- -- 100
2019-08-21 08:00:00 11.3 0 Calma 4 Nordeste 0 -- -- 100
2019-08-21 07:00:00 11.4 0 Calma 4 Nordeste 0 -- -- 100
2019-08-21 06:00:00 11.6 0 Calma 5 Nordeste 0 -- -- 100
2019-08-21 05:00:00 12.1 0 Calma 5 Nordeste 0 -- -- 100
2019-08-21 04:00:00 12.5 2 Nordeste 4 Nordeste 0 -- -- 99
2019-08-21 03:00:00 13.7 0 Calma 3 Nordeste 0 -- -- 97
2019-08-21 02:00:00 13.6 0 Calma 5 Nordeste 0 -- -- 97
2019-08-21 01:00:00 15 2 Nordeste 5 Nordeste 0 -- -- 93
2019-08-21 00:00:00 15.7 0 Calma 6 Este 0 -- -- 93
2019-08-20 23:00:00 15.9 0 Calma 8 Norte 0 -- -- 91
2019-08-20 22:00:00 16.8 6 Noroeste 14 Noroeste 0 -- -- 82
2019-08-20 21:00:00 17.6 3 Noroeste 14 Oeste 0 -- -- 79
2019-08-20 20:00:00 18.5 6 Noroeste 14 Oeste 0 -- -- 77
2019-08-20 19:00:00 19.9 5 Sudoeste 19 Oeste 0 -- -- 71
2019-08-20 18:00:00 20 8 Oeste 20 Oeste 0 -- -- 72
2019-08-20 17:00:00 20.2 8 Oeste 22 Noroeste 0 -- -- 72
2019-08-20 16:00:00 19.8 5 Sudoeste 19 Sudoeste 0 -- -- 76
2019-08-20 15:00:00 19.3 7 Oeste 21 Oeste 0 -- -- 81
2019-08-20 14:00:00 18.3 9 Sudoeste 21 Sudoeste 0 -- -- 85
2019-08-20 13:00:00 16.9 8 Sudoeste 18 Oeste 0 -- -- 92
2019-08-20 12:00:00 16.6 10 Sudoeste 17 Sudoeste 0 -- -- 94
2019-08-20 11:00:00 15.6 7 Sudoeste 15 Sudoeste 0 -- -- 100
2019-08-20 10:00:00 14.6 0 Calma 6 Sur 0.2 -- -- 100
2019-08-20 09:00:00 13.9 0 Calma 4 Este 0 -- -- 100
2019-08-20 08:00:00 13.4 0 Calma 4 Sur 0 -- -- 100
2019-08-20 07:00:00 13.3 0 Calma 5 Este 0 -- -- 100
2019-08-20 06:00:00 13.6 0 Calma 9 Sur 0 -- -- 100
2019-08-20 05:00:00 13.6 2 Sur 14 Oeste 0.2 -- -- 100
2019-08-20 04:00:00 13.6 8 Oeste 15 Oeste 0.2 -- -- 100
2019-08-20 03:00:00 13.7 0 Calma 6 Sur 0.2 -- -- 100
2019-08-20 02:00:00 13.7 3 Sudoeste 6 Sudoeste 0.4 -- -- 100
2019-08-20 01:00:00 13.7 2 Sur 7 Sudoeste 0 -- -- 100
2019-08-20 00:00:00 13.8 3 Sudoeste 12 Oeste 0 -- -- 100
2019-08-19 23:00:00 13.8 3 Este 10 Norte 0 -- -- 98
2019-08-19 22:00:00 14 4 Sudeste 10 Sudeste 0 -- -- 98
2019-08-19 21:00:00 14.2 5 Sur 14 Sudoeste 0.2 -- -- 96
2019-08-19 20:00:00 14.6 5 Sudoeste 13 Oeste 0 -- -- 98
2019-08-19 19:00:00 15.3 6 Noroeste 17 Oeste 0 -- -- 90
2019-08-19 18:00:00 16 7 Oeste 17 Oeste 0 -- -- 90
2019-08-19 17:00:00 16.8 6 Oeste 16 Oeste 0 -- -- 86
2019-08-19 16:00:00 16.3 6 Sudoeste 15 Sudoeste 0 -- -- 94
2019-08-19 15:00:00 15.8 5 Sudoeste 9 Sudoeste 1.8 -- -- 95
2019-08-19 14:00:00 16.5 3 Sur 14 Sudoeste 0 -- -- 86
2019-08-19 13:00:00 16.5 6 Sudoeste 15 Sudoeste 0 -- -- 88
2019-08-19 12:00:00 16 6 Sur 14 Oeste 0 -- -- 93
2019-08-19 11:00:00 15 4 Sudoeste 11 Oeste 0 -- -- 99
2019-08-19 10:00:00 14.5 0 Calma 6 Oeste 0 -- -- 99
2019-08-19 09:00:00 13.9 0 Calma 5 Nordeste 0 -- -- 100
2019-08-19 08:00:00 13.3 0 Calma 5 Nordeste 0 -- -- 100
2019-08-19 07:00:00 13.2 0 Calma 4 Nordeste 0 -- -- 100
2019-08-19 06:00:00 13.1 0 Calma 4 Nordeste 0.2 -- -- 100
2019-08-19 05:00:00 13.1 2 Nordeste 4 Nordeste 0.8 -- -- 100
2019-08-19 04:00:00 13.3 0 Calma 3 Nordeste 0.2 -- -- 100
2019-08-19 03:00:00 13.4 0 Calma 3 Nordeste 0 -- -- 100
2019-08-19 02:00:00 13.3 0 Calma 4 Nordeste 0 -- -- 99
2019-08-19 01:00:00 13.4 0 Calma 5 Nordeste 0 -- -- 99
2019-08-19 00:00:00 13.5 4 Nordeste 7 Nordeste 0 -- -- 98
2019-08-18 23:00:00 13.9 5 Nordeste 6 Nordeste 0 -- -- 98
2019-08-18 22:00:00 14.4 3 Noroeste 5 Noroeste 0.2 -- -- 99
2019-08-18 21:00:00 14.6 0 Calma 7 Oeste 0.2 -- -- 99
2019-08-18 20:00:00 14.9 3 Oeste 5 Oeste 0.6 -- -- 99
2019-08-18 19:00:00 15.5 3 Sudoeste 7 Oeste 0.2 -- -- 98
2019-08-18 18:00:00 15.7 3 Sudoeste 10 Oeste 0.6 -- -- 99
2019-08-18 17:00:00 16.2 5 Oeste 15 Oeste 0.2 -- -- 95
2019-08-18 16:00:00 17.4 2 Sudoeste 7 Sudoeste 0.6 -- -- 97
2019-08-18 15:00:00 16.9 2 Sudoeste 7 Oeste 1.4 -- -- 99
2019-08-18 14:00:00 16.9 3 Noroeste 11 Oeste 0.8 -- -- 97
2019-08-18 13:00:00 17.5 4 Sudoeste 11 Sudoeste 1 -- -- 100
2019-08-18 12:00:00 17.6 3 Oeste 11 Oeste 0.2 -- -- 97
2019-08-18 11:00:00 17.6 0 Calma 6 Norte 0 -- -- 96
2019-08-18 10:00:00 17.6 2 Noroeste 6 Norte 0 -- -- 95
2019-08-18 09:00:00 16.9 4 Oeste 6 Oeste 0 -- -- 96
2019-08-18 08:00:00 15.7 0 Calma 7 Oeste 0 -- -- 99
2019-08-18 07:00:00 15.2 0 Calma 5 Noroeste 0 -- -- 99
2019-08-18 06:00:00 15.5 3 Noroeste 5 Noroeste 0 -- -- 100
2019-08-18 05:00:00 15.5 0 Calma 4 Oeste 0 -- -- 99
2019-08-18 04:00:00 16.1 0 Calma 4 Noroeste 0 -- -- 99
2019-08-18 03:00:00 16.7 3 Noroeste 6 Oeste 0 -- -- 98
2019-08-18 02:00:00 17.2 3 Nordeste 7 Nordeste 0 -- -- 96
2019-08-18 01:00:00 17.3 0 Calma 6 Sudeste 0 -- -- 97
2019-08-18 00:00:00 17.5 0 Calma 5 Sudeste 0 -- -- 95
2019-08-17 23:00:00 18 2 Sur 5 Sur 0 -- -- 93
2019-08-17 22:00:00 19.5 0 Calma 9 Sur 0 -- -- 87
2019-08-17 21:00:00 23.2 0 Calma 13 Nordeste 0 -- -- 76
2019-08-17 20:00:00 26.1 5 Sur 19 Oeste 0 -- -- 66
2019-08-17 19:00:00 27.2 9 Oeste 21 Sudoeste 0 -- -- 62
2019-08-17 18:00:00 28.2 5 Oeste 18 Oeste 0 -- -- 61
2019-08-17 17:00:00 28.6 6 Oeste 22 Sudoeste 0 -- -- 58
2019-08-17 16:00:00 29.5 9 Sudoeste 22 Sudoeste 0 -- -- 55
2019-08-17 15:00:00 29.2 10 Sudoeste 24 Sudoeste 0 -- -- 56
2019-08-17 14:00:00 28 6 Oeste 21 Oeste 0 -- -- 52
2019-08-17 13:00:00 26.9 9 Sudoeste 19 Sudoeste 0 -- -- 59
2019-08-17 12:00:00 24.3 6 Sur 12 Sudoeste 0 -- -- 71
2019-08-17 11:00:00 21.4 5 Oeste 8 Noroeste 0 -- -- 77
2019-08-17 10:00:00 18.3 2 Nordeste 5 Nordeste 0 -- -- 89
2019-08-17 09:00:00 15 0 Calma 4 Norte 0 -- -- 100
2019-08-17 08:00:00 14.8 0 Calma 5 Nordeste 0 -- -- 97
2019-08-17 07:00:00 14.7 3 Nordeste 8 Norte 0 -- -- 98
2019-08-17 06:00:00 14.8 0 Calma 5 Norte 0 -- -- 100
2019-08-17 05:00:00 14.7 0 Calma 5 Este 0 -- -- 100
2019-08-17 04:00:00 14.9 2 Norte 5 Norte 0 -- -- 100
2019-08-17 03:00:00 15.1 3 Nordeste 5 Norte 0 -- -- 100
2019-08-17 02:00:00 15.5 3 Nordeste 6 Este 0 -- -- 99
2019-08-17 01:00:00 15.4 0 Calma 5 Norte 0 -- -- 99
2019-08-17 00:00:00 15.5 0 Calma 4 Norte 0 -- -- 97
2019-08-16 23:00:00 16.5 2 Norte 6 Noroeste 0 -- -- 94
2019-08-16 22:00:00 17.8 0 Calma 5 Norte 0 -- -- 90
2019-08-16 21:00:00 20.8 5 Noroeste 10 Oeste 0 -- -- 80
2019-08-16 20:00:00 23.8 3 Oeste 15 Oeste 0 -- -- 71
2019-08-16 19:00:00 25.2 8 Sudoeste 21 Oeste 0 -- -- 64
2019-08-16 18:00:00 27 7 Sudoeste 22 Oeste 0 -- -- 58
2019-08-16 17:00:00 27.8 8 Oeste 22 Oeste 0 -- -- 59
2019-08-16 16:00:00 27.1 9 Oeste 22 Oeste 0 -- -- 61
2019-08-16 15:00:00 27.3 9 Oeste 23 Sudoeste 0 -- -- 58
2019-08-16 14:00:00 27.4 8 Sudoeste 16 Oeste 0 -- -- 60
2019-08-16 13:00:00 24.6 8 Sudoeste 15 Sudoeste 0 -- -- 68
2019-08-16 12:00:00 21.7 5 Sudoeste 12 Oeste 0 -- -- 70
2019-08-16 11:00:00 19.3 2 Sudoeste 6 Oeste 0 -- -- 75
2019-08-16 10:00:00 15.8 2 Noroeste 4 Noroeste 0 -- -- 90
2019-08-16 09:00:00 12.2 0 Calma 4 Norte 0 -- -- 97
2019-08-16 08:00:00 11.6 0 Calma 5 Sur 0 -- -- 98
2019-08-16 07:00:00 12 0 Calma 5 Sudeste 0 -- -- 98
2019-08-16 06:00:00 12.2 3 Sudoeste 5 Sur 0 -- -- 98
2019-08-16 05:00:00 13.1 0 Calma 7 Este 0 -- -- 97
2019-08-16 04:00:00 13.8 2 Norte 4 Noroeste 0 -- -- 96
2019-08-16 03:00:00 15.5 0 Calma 3 Noroeste 0 -- -- 97
2019-08-16 02:00:00 14.8 0 Calma 4 Oeste 0 -- -- 100
2019-08-16 01:00:00 15 2 Sur 12 Norte 0 -- -- 95
2019-08-16 00:00:00 15.6 3 Noroeste 5 Noroeste 0 -- -- 91
2019-08-15 23:00:00 17 0 Calma 5 Noroeste 0 -- -- 90
2019-08-15 22:00:00 17.1 3 Sudoeste 8 Noroeste 0 -- -- 89
2019-08-15 21:00:00 18.4 2 Noroeste 16 Oeste 0 -- -- 82
2019-08-15 20:00:00 20.7 7 Sudoeste 13 Sudoeste 0 -- -- 77
2019-08-15 19:00:00 20.3 8 Sudoeste 17 Sudoeste 0 -- -- 77
2019-08-15 18:00:00 20.8 8 Sudoeste 21 Oeste 0 -- -- 75
2019-08-15 17:00:00 20.3 8 Oeste 26 Oeste 0 -- -- 75
2019-08-15 16:00:00 22.9 6 Sudoeste 26 Sudoeste 0 -- -- 68
2019-08-15 15:00:00 22.4 13 Sudoeste 26 Sudoeste 0 -- -- 72
2019-08-15 14:00:00 23 11 Sudoeste 23 Oeste 0 -- -- 66
2019-08-15 13:00:00 21.4 9 Sudoeste 21 Sudoeste 0 -- -- 75
2019-08-15 12:00:00 20.1 7 Sur 18 Sudoeste 0 -- -- 80
2019-08-15 11:00:00 17.7 6 Sudoeste 12 Sur 0 -- -- 89
2019-08-15 10:00:00 16.4 2 Sudoeste 9 Sudoeste 0 -- -- 95
2019-08-15 09:00:00 16.1 4 Oeste 7 Oeste 0 -- -- 94
2019-08-15 08:00:00 16.3 0 Calma 6 Nordeste 0 -- -- 94
2019-08-15 07:00:00 16.6 3 Sudoeste 7 Oeste 0 -- -- 94
2019-08-15 06:00:00 17.1 5 Oeste 9 Norte 0 -- -- 94
2019-08-15 05:00:00 17 0 Calma 4 Noroeste 0 -- -- 98
2019-08-15 04:00:00 18 0 Calma 9 Noroeste 0 -- -- 94
2019-08-15 03:00:00 18.4 0 Calma 6 Oeste 0 -- -- 96
2019-08-15 02:00:00 18.9 0 Calma 4 Sudoeste 0 -- -- 94
2019-08-15 01:00:00 19.1 3 Noroeste 5 Oeste 0 -- -- 93
2019-08-15 00:00:00 19.5 0 Calma 5 Oeste 0 -- -- 92
2019-08-14 23:00:00 19.9 0 Calma 6 Oeste 0 -- -- 89
2019-08-14 22:00:00 20.2 3 Norte 13 Oeste 0 -- -- 86
2019-08-14 21:00:00 21.4 3 Oeste 13 Oeste 0 -- -- 77
2019-08-14 20:00:00 23.5 8 Oeste 17 Oeste 0 -- -- 70
2019-08-14 19:00:00 24.6 7 Oeste 20 Sudoeste 0 -- -- 65
2019-08-14 18:00:00 25.2 9 Noroeste 24 Noroeste 0 -- -- 61
2019-08-14 17:00:00 25.6 9 Noroeste 22 Noroeste 0 -- -- 64
2019-08-14 16:00:00 26.2 8 Sudoeste 18 Sudoeste 0 -- -- 60
2019-08-14 15:00:00 25.7 5 Oeste 17 Oeste 0 -- -- 61
2019-08-14 14:00:00 23.7 6 Sudoeste 12 Sudoeste 0 -- -- 66
2019-08-14 13:00:00 22.8 4 Sudoeste 15 Sudoeste 0 -- -- 67
2019-08-14 12:00:00 22.1 5 Oeste 10 Sudoeste 0 -- -- 66
2019-08-14 11:00:00 19.8 4 Sudoeste 7 Nordeste 0 -- -- 75
2019-08-14 10:00:00 15.5 3 Norte 9 Norte 0 -- -- 86
2019-08-14 09:00:00 13.3 5 Noroeste 8 Noroeste 0 -- -- 99
2019-08-14 08:00:00 12.2 2 Norte 5 Norte 0 -- -- 100
2019-08-14 07:00:00 11.9 2 Norte 5 Norte 0 -- -- 100
2019-08-14 06:00:00 12.4 2 Norte 7 Norte 0 -- -- 99
2019-08-14 05:00:00 13 4 Noroeste 8 Norte 0 -- -- 100
2019-08-14 04:00:00 12.8 4 Nordeste 5 Nordeste 0 -- -- 99
2019-08-14 03:00:00 12.9 2 Norte 5 Norte 0 -- -- 99
2019-08-14 02:00:00 13.2 2 Norte 5 Norte 0 -- -- 99
2019-08-14 01:00:00 13.4 2 Noroeste 4 Norte 0 -- -- 98
2019-08-14 00:00:00 13.6 3 Norte 4 Norte 0 -- -- 96
2019-08-13 23:00:00 14.4 2 Norte 4 Norte 0 -- -- 94
2019-08-13 22:00:00 16.2 2 Norte 4 Norte 0 -- -- 88
2019-08-13 21:00:00 18.9 3 Norte 10 Oeste 0 -- -- 80
2019-08-13 20:00:00 20.4 5 Oeste 14 Oeste 0 -- -- 72
2019-08-13 19:00:00 21.7 5 Oeste 23 Sur 0 -- -- 66
2019-08-13 18:00:00 23.1 10 Sudoeste 28 Oeste 0 -- -- 65
2019-08-13 17:00:00 23 7 Sudoeste 32 Sudoeste 0 -- -- 63
2019-08-13 16:00:00 23.2 7 Sudoeste 23 Sudoeste 0 -- -- 65
2019-08-13 15:00:00 22.6 10 Sudoeste 26 Sudoeste 0 -- -- 63
2019-08-13 14:00:00 21.4 11 Sudoeste 25 Sudoeste 0 -- -- 67
2019-08-13 13:00:00 20.3 10 Sudoeste 20 Oeste 0 -- -- 70
2019-08-13 12:00:00 18.9 7 Sudoeste 13 Sudoeste 0 -- -- 74
2019-08-13 11:00:00 16.3 3 Sur 7 Sudoeste 0 -- -- 75
2019-08-13 10:00:00 13.3 0 Calma 8 Nordeste 0 -- -- 90
2019-08-13 09:00:00 9.6 0 Calma 3 Nordeste 0 -- -- 100
2019-08-13 08:00:00 9 0 Calma 4 Nordeste 0 -- -- 100
2019-08-13 07:00:00 9 0 Calma 4 Nordeste 0 -- -- 99
2019-08-13 06:00:00 9.6 0 Calma 4 Nordeste 0 -- -- 99
2019-08-13 05:00:00 10.4 0 Calma 5 Sudeste 0 -- -- 98
2019-08-13 04:00:00 12 2 Este 5 Nordeste 0 -- -- 95
2019-08-13 03:00:00 11.8 2 Norte 5 Nordeste 0 -- -- 99
2019-08-13 02:00:00 10.7 0 Calma 4 Nordeste 0 -- -- 97
2019-08-13 01:00:00 11.9 0 Calma 4 Nordeste 0 -- -- 94
2019-08-13 00:00:00 13.8 0 Calma 8 Norte 0 -- -- 91
2019-08-12 23:00:00 14.3 4 Noroeste 8 Oeste 0 -- -- 87
2019-08-12 22:00:00 15 4 Oeste 15 Noroeste 0 -- -- 80
2019-08-12 21:00:00 15.5 5 Oeste 15 Oeste 0 -- -- 78
2019-08-12 20:00:00 16.4 6 Noroeste 14 Noroeste 0 -- -- 76
2019-08-12 19:00:00 17.8 3 Noroeste 17 Sudoeste 0 -- -- 72
2019-08-12 18:00:00 18.7 5 Sudoeste 17 Oeste 0 -- -- 67
2019-08-12 17:00:00 19.9 11 Sudoeste 25 Sudoeste 0 -- -- 67
2019-08-12 16:00:00 19.5 8 Sudoeste 14 Sudoeste 0.2 -- -- 70
2019-08-12 15:00:00 16.8 4 Noroeste 18 Oeste 0 -- -- 71
2019-08-12 14:00:00 16.9 4 Sudoeste 13 Oeste 0 -- -- 71
2019-08-12 13:00:00 16.4 5 Norte 11 Norte 0 -- -- 75
2019-08-12 12:00:00 16.9 0 Calma 9 Sur 0 -- -- 74
2019-08-12 11:00:00 13.4 2 Este 5 Noroeste 0 -- -- 95
2019-08-12 10:00:00 12.4 0 Calma 5 Noroeste 0 -- -- 95
2019-08-12 09:00:00 10.9 3 Noroeste 8 Noroeste 0 -- -- 99
2019-08-12 08:00:00 10.1 0 Calma 6 Norte 0 -- -- 100
2019-08-12 07:00:00 10.2 3 Noroeste 6 Oeste 0 -- -- 100
2019-08-12 06:00:00 9.6 0 Calma 5 Norte 0 -- -- 100
2019-08-12 05:00:00 10.3 2 Noroeste 5 Norte 0 -- -- 99
2019-08-12 04:00:00 11.1 0 Calma 4 Norte 0 -- -- 100
2019-08-12 03:00:00 11 0 Calma 4 Norte 0 -- -- 100
2019-08-12 02:00:00 10.7 0 Calma 8 Sur 0 -- -- 100
2019-08-12 01:00:00 10.9 3 Nordeste 8 Sudeste 0 -- -- 99
2019-08-12 00:00:00 11.2 3 Noroeste 6 Sudoeste 0 -- -- 99
2019-08-11 23:00:00 11.6 2 Nordeste 8 Sudoeste 0 -- -- 100
2019-08-11 22:00:00 12.5 3 Norte 6 Nordeste 0 -- -- 97
2019-08-11 21:00:00 14.4 0 Calma 5 Noroeste 0 -- -- 95
2019-08-11 20:00:00 14.4 2 Nordeste 13 Nordeste 0.2 -- -- 96
2019-08-11 19:00:00 14.4 5 Noroeste 8 Noroeste 5 -- -- 91
2019-08-11 18:00:00 15.1 0 Calma 16 Noroeste 2.2 -- -- 96
2019-08-11 17:00:00 15.5 11 Noroeste 27 Oeste 4.6 -- -- 85
2019-08-11 16:00:00 18.8 10 Oeste 18 Noroeste 0 -- -- 73
2019-08-11 15:00:00 18.1 6 Noroeste 18 Oeste 0 -- -- 79
2019-08-11 14:00:00 18.6 3 Sur 8 Sudoeste 0 -- -- 80
2019-08-11 13:00:00 18.2 3 Sur 15 Sudoeste 0 -- -- 80
2019-08-11 12:00:00 17.8 5 Sudoeste 13 Sudoeste 0 -- -- 86
2019-08-11 11:00:00 16.8 6 Sudoeste 12 Sudoeste 0 -- -- 88
2019-08-11 10:00:00 15.8 2 Noroeste 4 Noroeste 0 -- -- 94
2019-08-11 09:00:00 15 0 Calma 4 Norte 0 -- -- 96
2019-08-11 08:00:00 14.4 0 Calma 3 Noroeste 0 -- -- 98
2019-08-11 07:00:00 14.3 0 Calma 3 Noroeste 0 -- -- 97
2019-08-11 06:00:00 14.5 2 Norte 4 Norte 0 -- -- 98
2019-08-11 05:00:00 14.7 4 Norte 8 Este 0 -- -- 96
2019-08-11 04:00:00 15.3 3 Noroeste 7 Oeste 0 -- -- 92
2019-08-11 03:00:00 15.4 2 Noroeste 8 Oeste 0 -- -- 90
2019-08-11 02:00:00 15.6 0 Calma 4 Oeste 0 -- -- 93
2019-08-11 01:00:00 16.2 0 Calma 8 Oeste 0 -- -- 90
2019-08-11 00:00:00 16.4 2 Norte 5 Noroeste 0 -- -- 88
2019-08-10 23:00:00 16.2 0 Calma 4 Nordeste 0 -- -- 87
2019-08-10 22:00:00 16.7 4 Nordeste 6 Nordeste 0 -- -- 84
2019-08-10 21:00:00 17.1 3 Norte 5 Norte 0 -- -- 79
2019-08-10 20:00:00 17.6 4 Noroeste 9 Noroeste 0 -- -- 77
2019-08-10 19:00:00 17.8 6 Noroeste 16 Norte 0 -- -- 76
2019-08-10 18:00:00 18.1 5 Oeste 23 Norte 0 -- -- 75
2019-08-10 17:00:00 18.7 6 Noroeste 27 Noroeste 0 -- -- 74
2019-08-10 16:00:00 20.2 8 Noroeste 24 Noroeste 0 -- -- 70
2019-08-10 15:00:00 20.8 13 Noroeste 27 Noroeste 0 -- -- 65
2019-08-10 14:00:00 23 10 Oeste 26 Noroeste 0 -- -- 59
2019-08-10 13:00:00 23.3 9 Sudoeste 22 Sudoeste 0 -- -- 55
2019-08-10 12:00:00 21.2 6 Noroeste 19 Oeste 0 -- -- 54
2019-08-10 11:00:00 19.9 5 Sudoeste 9 Sudoeste 0 -- -- 74
2019-08-10 10:00:00 18.5 4 Sudoeste 7 Sudoeste 0 -- -- 84
2019-08-10 09:00:00 15 2 Norte 5 Noroeste 0 -- -- 97
2019-08-10 08:00:00 14.1 2 Norte 4 Norte 0 -- -- 96
2019-08-10 07:00:00 15.7 2 Norte 8 Oeste 0 -- -- 94
2019-08-10 06:00:00 16.6 0 Calma 6 Norte 0 -- -- 93
2019-08-10 05:00:00 16.5 2 Norte 6 Norte 0 -- -- 93
2019-08-10 04:00:00 15.8 0 Calma 3 Nordeste 0 -- -- 98
2019-08-10 03:00:00 16.1 0 Calma 4 Norte 0 -- -- 97
2019-08-10 02:00:00 16.4 0 Calma 4 Norte 0 -- -- 97
2019-08-10 01:00:00 16.3 3 Norte 5 Norte 0 -- -- 97
2019-08-10 00:00:00 16.9 2 Norte 4 Norte 0 -- -- 95
2019-08-09 23:00:00 17.2 0 Calma 5 Norte 0 -- -- 94
2019-08-09 22:00:00 18.1 2 Norte 6 Norte 0 -- -- 91
2019-08-09 21:00:00 20.4 2 Noroeste 6 Nordeste 0 -- -- 88
2019-08-09 20:00:00 21.5 2 Este 6 Este 0 -- -- 85
2019-08-09 19:00:00 22.1 3 Noroeste 7 Oeste 0 -- -- 84
2019-08-09 18:00:00 22.8 2 Sudoeste 11 Oeste 0 -- -- 81
2019-08-09 17:00:00 23.6 6 Sudoeste 19 Sudoeste 0 -- -- 80
2019-08-09 16:00:00 23.5 7 Norte 18 Sudoeste 0 -- -- 80
2019-08-09 15:00:00 22.9 4 Sudoeste 13 Oeste 0 -- -- 85
2019-08-09 14:00:00 23.7 4 Sudoeste 14 Sudoeste 0 -- -- 81
2019-08-09 13:00:00 22.8 5 Sudoeste 13 Oeste 0 -- -- 86
2019-08-09 12:00:00 23 6 Sudoeste 15 Oeste 0 -- -- 86
2019-08-09 11:00:00 22.8 4 Sudoeste 11 Oeste 0 -- -- 89
2019-08-09 10:00:00 21.4 2 Oeste 8 Norte 0 -- -- 92
2019-08-09 09:00:00 20.6 4 Sur 10 Noroeste 0 -- -- 94
2019-08-09 08:00:00 20.7 4 Noroeste 8 Oeste 0 -- -- 91
2019-08-09 07:00:00 22.4 6 Sudoeste 37 Sur 0 -- -- 81
2019-08-09 06:00:00 25.7 14 Sur 36 Sudeste 0 -- -- 62
2019-08-09 05:00:00 25.9 13 Sudeste 44 Este 0 -- -- 60
2019-08-09 04:00:00 26.2 15 Sudeste 35 Sudeste 0 -- -- 58
2019-08-09 03:00:00 26.4 10 Sur 37 Este 0 -- -- 57
2019-08-09 02:00:00 26.6 14 Sudeste 39 Este 0 -- -- 56
2019-08-09 01:00:00 27 13 Sudeste 46 Este 0 -- -- 54
2019-08-09 00:00:00 26.8 18 Sudeste 42 Este 0 -- -- 52
2019-08-08 23:00:00 27.1 13 Sudeste 46 Este 0 -- -- 52
2019-08-08 22:00:00 28.1 17 Sudeste 44 Este 0 -- -- 51
2019-08-08 21:00:00 28.3 15 Sudeste 38 Sudeste 0 -- -- 54
2019-08-08 20:00:00 28.8 13 Sudeste 35 Sudeste 0 -- -- 55
2019-08-08 19:00:00 29.1 12 Sudeste 32 Sudeste 0 -- -- 57
2019-08-08 18:00:00 27.9 14 Sudeste 51 Este 0 -- -- 61
2019-08-08 17:00:00 29.2 20 Sudeste 45 Sur 0 -- -- 58
2019-08-08 16:00:00 28.5 13 Sudeste 30 Sudoeste 0 -- -- 58
2019-08-08 15:00:00 30.5 13 Sudeste 30 Sur 0 -- -- 52
2019-08-08 14:00:00 28.9 15 Sudeste 40 Sur 0 -- -- 57
2019-08-08 13:00:00 27.6 17 Sudeste 37 Este 0 -- -- 57
2019-08-08 12:00:00 27.5 20 Este 41 Este 0 -- -- 55
2019-08-08 11:00:00 26.3 18 Sudeste 42 Sudeste 0 -- -- 61
2019-08-08 10:00:00 25.1 14 Este 36 Sudeste 0 -- -- 64
2019-08-08 09:00:00 22.9 14 Este 37 Este 0 -- -- 69
2019-08-08 08:00:00 22.6 14 Sudeste 35 Este 0 -- -- 69
2019-08-08 07:00:00 22 9 Este 28 Sudeste 0 -- -- 74
2019-08-08 06:00:00 19.9 5 Sudeste 23 Este 0 -- -- 82
2019-08-08 05:00:00 20.6 7 Sudeste 21 Este 0 -- -- 80
2019-08-08 04:00:00 17.9 3 Este 14 Noroeste 0 -- -- 98
2019-08-08 03:00:00 18 4 Norte 13 Noroeste 0 -- -- 99
2019-08-08 02:00:00 18 3 Noroeste 5 Oeste 0 -- -- 100
2019-08-08 01:00:00 17.6 0 Calma 7 Nordeste 0 -- -- 99
2019-08-08 00:00:00 18 2 Nordeste 6 Nordeste 0 -- -- 98
2019-08-07 23:00:00 18.9 3 Noroeste 4 Noroeste 0 -- -- 95
2019-08-07 22:00:00 19.9 0 Calma 4 Noroeste 0 -- -- 93
2019-08-07 21:00:00 22 0 Calma 3 Noroeste 0 -- -- 87
2019-08-07 20:00:00 22.9 0 Calma 6 Sudoeste 0 -- -- 83
2019-08-07 19:00:00 23.3 0 Calma 8 Oeste 0 -- -- 81
2019-08-07 18:00:00 24.2 3 Sudoeste 12 Sudoeste 0 -- -- 75
2019-08-07 17:00:00 24.4 3 Sudoeste 12 Oeste 0 -- -- 79
2019-08-07 16:00:00 24.7 6 Sudoeste 17 Oeste 0 -- -- 73
2019-08-07 15:00:00 26.1 10 Sudoeste 24 Sudoeste 0 -- -- 72
2019-08-07 14:00:00 25.8 10 Oeste 24 Oeste 0 -- -- 72
2019-08-07 13:00:00 24.8 11 Sudoeste 21 Oeste 0 -- -- 73
2019-08-07 12:00:00 22.9 5 Sudoeste 11 Sudoeste 0 -- -- 81
2019-08-07 11:00:00 20.9 4 Sur 9 Sur 0 -- -- 85
2019-08-07 10:00:00 18.1 2 Noroeste 5 Noroeste 0 -- -- 91
2019-08-07 09:00:00 15 0 Calma 4 Noroeste 0 -- -- 100
2019-08-07 08:00:00 14.7 0 Calma 4 Noroeste 0 -- -- 100
2019-08-07 07:00:00 14.8 0 Calma 5 Sudoeste 0 -- -- 100
2019-08-07 06:00:00 15.8 2 Sudoeste 6 Sudoeste 0 -- -- 100
2019-08-07 05:00:00 16.2 0 Calma 3 Nordeste 0 -- -- 100
2019-08-07 04:00:00 16.2 0 Calma 4 Norte 0 -- -- 100
2019-08-07 03:00:00 16.6 0 Calma 5 Nordeste 0 -- -- 100
2019-08-07 02:00:00 16.7 2 Nordeste 6 Nordeste 0.2 -- -- 99
2019-08-07 01:00:00 16.8 3 Norte 9 Sur 0 -- -- 99
2019-08-07 00:00:00 17 3 Oeste 12 Sudeste 1.2 -- -- 98
2019-08-06 23:00:00 17.3 5 Nordeste 14 Sur 0.2 -- -- 99
2019-08-06 22:00:00 17.7 2 Nordeste 16 Nordeste 2.4 -- -- 98
2019-08-06 21:00:00 18 3 Sudeste 9 Sur 1.2 -- -- 98
2019-08-06 20:00:00 18.3 4 Oeste 14 Este 0.2 -- -- 97
2019-08-06 19:00:00 19.6 4 Nordeste 20 Noroeste 0 -- -- 86
2019-08-06 18:00:00 20.5 8 Noroeste 15 Oeste 0 -- -- 82
2019-08-06 17:00:00 22 4 Sudoeste 19 Sudoeste 0 -- -- 80
2019-08-06 16:00:00 23.8 5 Sudoeste 14 Oeste 0 -- -- 76
2019-08-06 15:00:00 24.8 6 Sudoeste 18 Oeste 0 -- -- 73
2019-08-06 14:00:00 24.5 5 Oeste 16 Noroeste 0 -- -- 74
2019-08-06 13:00:00 25.3 9 Sudoeste 16 Sur 0 -- -- 73
2019-08-06 12:00:00 23 4 Sudoeste 8 Sur 0 -- -- 81
2019-08-06 11:00:00 20.5 4 Sudoeste 7 Sudoeste 0 -- -- 89
2019-08-06 10:00:00 18.7 0 Calma 6 Sudoeste 0 -- -- 94
2019-08-06 09:00:00 18.1 2 Noroeste 6 Sur 0 -- -- 99
2019-08-06 08:00:00 17.5 0 Calma 4 Noroeste 0 -- -- 99
2019-08-06 07:00:00 17.5 0 Calma 5 Norte 0 -- -- 99
2019-08-06 06:00:00 17.5 0 Calma 4 Norte 0 -- -- 99
2019-08-06 05:00:00 17.4 0 Calma 4 Norte 0 -- -- 100
2019-08-06 04:00:00 16.8 0 Calma 4 Norte 0 -- -- 100
2019-08-06 03:00:00 16.8 2 Norte 4 Norte 0 -- -- 97
2019-08-06 02:00:00 18.8 3 Norte 5 Noroeste 0 -- -- 94
2019-08-06 01:00:00 18.8 2 Norte 4 Norte 0 -- -- 95
2019-08-06 00:00:00 19.2 0 Calma 4 Norte 0 -- -- 93
2019-08-05 23:00:00 19.5 0 Calma 5 Norte 0 -- -- 92
2019-08-05 22:00:00 20.1 0 Calma 9 Sudoeste 0 -- -- 89
2019-08-05 21:00:00 21.1 3 Sudoeste 10 Noroeste 0 -- -- 87
2019-08-05 20:00:00 21.8 4 Oeste 12 Oeste 0 -- -- 82
2019-08-05 19:00:00 22.5 4 Sudoeste 13 Sudoeste 0 -- -- 83
2019-08-05 18:00:00 22.7 5 Sur 16 Oeste 0 -- -- 80
2019-08-05 17:00:00 23.8 7 Oeste 21 Noroeste 0 -- -- 76
2019-08-05 16:00:00 25.8 7 Sur 22 Oeste -- -- -- 69
2019-08-05 15:00:00 26.2 5 Nordeste 22 Sudoeste 0 -- -- 71
2019-08-05 14:00:00 25.8 8 Sudoeste 21 Sur 0 -- -- 65
2019-08-05 13:00:00 24.2 7 Oeste 17 Oeste 0 -- -- 68
2019-08-05 12:00:00 22.8 6 Sudoeste 14 Sudoeste 0 -- -- 74
2019-08-05 11:00:00 20.6 5 Sudoeste 8 Sudoeste 0 -- -- 83
2019-08-05 10:00:00 17.8 0 Calma 4 Sudoeste 0 -- -- 89
2019-08-05 09:00:00 17.2 0 Calma 4 Oeste 0 -- -- 93
2019-08-05 08:00:00 17.2 3 Oeste 5 Oeste 0 -- -- 97
2019-08-05 07:00:00 17.6 0 Calma 4 Oeste 0 -- -- 98
2019-08-05 06:00:00 17.8 0 Calma 2 Oeste 0 -- -- 100
2019-08-05 05:00:00 17.8 0 Calma 3 Oeste 0 -- -- 99
2019-08-05 04:00:00 17.8 0 Calma 2 Oeste 0 -- -- 99
2019-08-05 03:00:00 17.9 0 Calma 3 Oeste 0 -- -- 98
2019-08-05 02:00:00 18.1 0 Calma 3 Oeste 0 -- -- 98
2019-08-05 01:00:00 18.3 0 Calma 3 Oeste 0 -- -- 97
2019-08-05 00:00:00 18.4 0 Calma 4 Oeste 0 -- -- 97
2019-08-04 23:00:00 18.6 0 Calma 4 Oeste 0 -- -- 96
2019-08-04 22:00:00 18.9 0 Calma 5 Oeste 0 -- -- 95
2019-08-04 21:00:00 19.3 2 Sudoeste 5 Oeste 0 -- -- 93
2019-08-04 20:00:00 19.6 0 Calma 5 Sudoeste 0 -- -- 92
2019-08-04 19:00:00 20.1 3 Sudoeste 10 Oeste 0 -- -- 90
2019-08-04 18:00:00 20.5 0 Calma 11 Oeste 0 -- -- 87
2019-08-04 17:00:00 21.5 5 Sudoeste 9 Oeste 0 -- -- 83
2019-08-04 16:00:00 20.8 4 Sudoeste 10 Sudoeste 0 -- -- 85
2019-08-04 15:00:00 20.2 2 Oeste 10 Oeste 0 -- -- 88
2019-08-04 14:00:00 20.2 5 Oeste 13 Oeste 0 -- -- 85
2019-08-04 13:00:00 20.7 5 Sudoeste 15 Oeste 0 -- -- 87
2019-08-04 12:00:00 20.1 8 Sudoeste 17 Sudoeste 0 -- -- 90
2019-08-04 11:00:00 18.9 3 Oeste 6 Sudoeste 0 -- -- 91
2019-08-04 10:00:00 17.9 0 Calma 3 Sudoeste 0 -- -- 97
2019-08-04 09:00:00 17.3 0 Calma 5 Sudoeste 0 -- -- 94
2019-08-04 08:00:00 17.7 0 Calma 5 Sudoeste 0 -- -- 96
2019-08-04 07:00:00 17.9 0 Calma 0 Calma 0 -- -- 97
2019-08-04 06:00:00 18 0 Calma 3 Oeste 0 -- -- 98
2019-08-04 05:00:00 17.8 0 Calma 4 Oeste 0 -- -- 99
2019-08-04 04:00:00 17.2 0 Calma 4 Oeste 0 -- -- 99
2019-08-04 03:00:00 17.8 0 Calma 0 Calma 0 -- -- 97
2019-08-04 02:00:00 18.5 0 Calma 2 Oeste 0 -- -- 95
2019-08-04 01:00:00 18.6 0 Calma 4 Oeste 0 -- -- 95
2019-08-04 00:00:00 18.6 0 Calma 5 Oeste 0 -- -- 94
2019-08-03 23:00:00 18.3 2 Oeste 5 Oeste 0 -- -- 94
2019-08-03 22:00:00 20.1 0 Calma 4 Sudoeste 0 -- -- 89
2019-08-03 21:00:00 21.5 3 Oeste 11 Oeste 0 -- -- 84
2019-08-03 20:00:00 24.1 8 Sudoeste 15 Sudoeste 0 -- -- 78
2019-08-03 19:00:00 25.5 8 Sudoeste 22 Oeste 0 -- -- 74
2019-08-03 18:00:00 26 8 Oeste 21 Oeste 0 -- -- 72
2019-08-03 17:00:00 25.8 10 Oeste 23 Oeste 0 -- -- 71
2019-08-03 16:00:00 26 8 Oeste 22 Sudoeste 0 -- -- 69
2019-08-03 15:00:00 25.4 6 Oeste 25 Sudoeste 0 -- -- 72
2019-08-03 14:00:00 24.8 9 Sudoeste 25 Oeste 0 -- -- 74
2019-08-03 13:00:00 23.9 9 Sudoeste 19 Oeste 0 -- -- 76
2019-08-03 12:00:00 22.1 9 Sudoeste 16 Sudoeste 0 -- -- 78
2019-08-03 11:00:00 20.2 5 Sudoeste 11 Oeste 0 -- -- 85
2019-08-03 10:00:00 17.5 0 Calma 4 Noroeste 0 -- -- 92
2019-08-03 09:00:00 14.1 0 Calma 3 Norte 0 -- -- 100
2019-08-03 08:00:00 13.2 0 Calma 3 Norte 0 -- -- 100
2019-08-03 07:00:00 13.1 0 Calma 4 Norte 0 -- -- 99
2019-08-03 06:00:00 13.6 0 Calma 4 Noroeste 0 -- -- 98
2019-08-03 05:00:00 14.4 3 Noroeste 5 Oeste 0 -- -- 99
2019-08-03 04:00:00 15.3 0 Calma 6 Noroeste 0 -- -- 98
2019-08-03 03:00:00 16.3 0 Calma 4 Sudeste 0 -- -- 98
2019-08-03 02:00:00 17.7 2 Sudeste 3 Sur 0 -- -- 96
2019-08-03 01:00:00 19.3 0 Calma 2 Sur 0 -- -- 93
2019-08-03 00:00:00 19.7 0 Calma 2 Sur 0 -- -- 91
2019-08-02 23:00:00 20.2 0 Calma 4 Sur 0 -- -- 89
2019-08-02 22:00:00 20.8 0 Calma 5 Sudeste 0 -- -- 88
2019-08-02 21:00:00 21.3 0 Calma 14 Oeste 0 -- -- 85
2019-08-02 20:00:00 23.3 6 Oeste 18 Noroeste 0 -- -- 79
2019-08-02 19:00:00 24.2 8 Oeste 19 Oeste 0 -- -- 76
2019-08-02 18:00:00 24.9 7 Noroeste 19 Sudoeste 0 -- -- 74
2019-08-02 17:00:00 25.2 10 Oeste 21 Oeste 0 -- -- 73
2019-08-02 16:00:00 25.7 9 Sudoeste 23 Sudoeste 0 -- -- 70
2019-08-02 15:00:00 25.2 12 Sudoeste 22 Oeste 0 -- -- 69
2019-08-02 14:00:00 24.3 11 Sudoeste 21 Sudoeste 0 -- -- 72
2019-08-02 13:00:00 22.8 12 Sudoeste 22 Oeste 0 -- -- 75
2019-08-02 12:00:00 21.6 8 Sudoeste 17 Sudoeste 0 -- -- 78
2019-08-02 11:00:00 18.8 4 Sudoeste 8 Sudoeste 0 -- -- 85
2019-08-02 10:00:00 15.9 2 Oeste 3 Oeste 0 -- -- 97
2019-08-02 09:00:00 13 0 Calma 4 Norte 0 -- -- 100
2019-08-02 08:00:00 12.2 0 Calma 3 Nordeste 0 -- -- 100
2019-08-02 07:00:00 12 0 Calma 3 Nordeste 0 -- -- 100
2019-08-02 06:00:00 12.4 0 Calma 2 Nordeste 0 -- -- 100
2019-08-02 05:00:00 12.8 0 Calma 3 Nordeste 0 -- -- 100
2019-08-02 04:00:00 13.1 2 Nordeste 4 Nordeste 0 -- -- 100
2019-08-02 03:00:00 13.5 0 Calma 4 Nordeste 0 -- -- 100
2019-08-02 02:00:00 14.1 0 Calma 4 Nordeste 0 -- -- 99
2019-08-02 01:00:00 15 3 Nordeste 4 Nordeste 0 -- -- 96
2019-08-02 00:00:00 16.5 2 Nordeste 5 Nordeste 0 -- -- 96
2019-08-01 23:00:00 16.8 2 Nordeste 5 Nordeste 0 -- -- 93
2019-08-01 22:00:00 18 0 Calma 8 Norte 0 -- -- 88
2019-08-01 21:00:00 18.9 3 Oeste 11 Noroeste 0 -- -- 81
2019-08-01 20:00:00 19.6 5 Oeste 18 Noroeste 0 -- -- 81
2019-08-01 19:00:00 20.2 6 Oeste 17 Oeste 0 -- -- 82
2019-08-01 18:00:00 20.9 8 Oeste 23 Noroeste 0 -- -- 79
2019-08-01 17:00:00 23 5 Sudoeste 23 Sudoeste 0 -- -- 74
2019-08-01 16:00:00 22.8 5 Noroeste 15 Sudoeste 0 -- -- 68
2019-08-01 15:00:00 22.9 5 Nordeste 18 Oeste 0 -- -- 71
2019-08-01 14:00:00 21.7 6 Sudoeste 13 Sudoeste 0 -- -- 72
2019-08-01 13:00:00 18.9 4 Sudoeste 10 Sudoeste 0 -- -- 83
2019-08-01 12:00:00 18 5 Sudoeste 9 Oeste 0 -- -- 87
2019-08-01 11:00:00 17.4 4 Noroeste 6 Noroeste 0 -- -- 90
2019-08-01 10:00:00 16.5 0 Calma 5 Noroeste 0 -- -- 91
2019-08-01 09:00:00 16 0 Calma 2 Norte 0 -- -- 94
2019-08-01 08:00:00 15.4 0 Calma 3 Norte 0 -- -- 96
2019-08-01 07:00:00 15.3 0 Calma 3 Nordeste 0 -- -- 96
2019-08-01 06:00:00 15.4 0 Calma 3 Nordeste 0 -- -- 96
2019-08-01 05:00:00 15.5 0 Calma 3 Nordeste 0 -- -- 96
2019-08-01 04:00:00 15.6 0 Calma 2 Nordeste 0 -- -- 93
2019-08-01 03:00:00 15.7 0 Calma 2 Nordeste 0 -- -- 95
2019-08-01 02:00:00 15.7 0 Calma 3 Nordeste 0 -- -- 95
2019-08-01 01:00:00 16.1 0 Calma 4 Nordeste 0 -- -- 93
2019-08-01 00:00:00 16.4 0 Calma 5 Norte 0 -- -- 91
2019-07-31 23:00:00 16.9 0 Calma 4 Norte 0 -- -- 87
2019-07-31 22:00:00 17.3 0 Calma 10 Norte 0 -- -- 84
2019-07-31 21:00:00 17.8 3 Sudoeste 10 Noroeste 0 -- -- 82
2019-07-31 20:00:00 18.5 3 Sudoeste 14 Oeste 0 -- -- 81
2019-07-31 19:00:00 19 3 Oeste 14 Oeste 0 -- -- 77
2019-07-31 18:00:00 19.9 7 Noroeste 16 Oeste 0 -- -- 71
2019-07-31 17:00:00 21 6 Noroeste 20 Sudoeste 0 -- -- 69
2019-07-31 16:00:00 22 11 Sudoeste 22 Oeste 0 -- -- 67
2019-07-31 15:00:00 22.2 12 Sudoeste 24 Oeste 0 -- -- 68
2019-07-31 14:00:00 20.7 9 Sudoeste 21 Oeste 0 -- -- 70
2019-07-31 13:00:00 20.2 10 Sudoeste 19 Oeste 0 -- -- 69
2019-07-31 12:00:00 18.9 8 Sudoeste 16 Sudoeste 0 -- -- 73
2019-07-31 11:00:00 17.2 3 Oeste 8 Oeste 0 -- -- 78
2019-07-31 10:00:00 14.7 0 Calma 4 Norte 0 -- -- 90
2019-07-31 09:00:00 10.8 3 Norte 4 Norte 0 -- -- 100
2019-07-31 08:00:00 10 2 Noroeste 4 Noroeste 0 -- -- 100
2019-07-31 07:00:00 10 0 Calma 4 Nordeste 0 -- -- 100
2019-07-31 06:00:00 10.3 3 Nordeste 4 Nordeste 0 -- -- 100
2019-07-31 05:00:00 10.7 0 Calma 4 Nordeste 0 -- -- 99
2019-07-31 04:00:00 11.4 2 Norte 4 Norte 0 -- -- 97
2019-07-31 03:00:00 12.9 0 Calma 4 Norte 0 -- -- 94
2019-07-31 02:00:00 14 0 Calma 5 Norte 0 -- -- 93
2019-07-31 01:00:00 14.3 2 Noroeste 4 Noroeste 0 -- -- 91
2019-07-31 00:00:00 14.5 4 Norte 5 Norte 0 -- -- 88
2019-07-30 23:00:00 14.8 0 Calma 13 Noroeste 0 -- -- 87
2019-07-30 22:00:00 14.9 5 Noroeste 9 Noroeste 0 -- -- 85
2019-07-30 21:00:00 15.2 6 Noroeste 14 Oeste 0 -- -- 81
2019-07-30 20:00:00 15.8 8 Noroeste 18 Noroeste 0 -- -- 78
2019-07-30 19:00:00 17 4 Sudoeste 18 Noroeste 0 -- -- 79
2019-07-30 18:00:00 18.2 6 Noroeste 19 Noroeste 0 -- -- 70
2019-07-30 17:00:00 22.2 11 Sudoeste 30 Oeste 0 -- -- 63
2019-07-30 16:00:00 22.3 10 Sudoeste 23 Sudoeste 0 -- -- 54
2019-07-30 15:00:00 21.2 8 Oeste 26 Sur 0 -- -- 53
2019-07-30 14:00:00 19.9 5 Norte 18 Oeste 0 -- -- 55
2019-07-30 13:00:00 19.7 5 Oeste 13 Oeste 0 -- -- 59
2019-07-30 12:00:00 18 4 Sur 13 Oeste 0 -- -- 70
2019-07-30 11:00:00 16.4 4 Oeste 9 Oeste 0 -- -- 80
2019-07-30 10:00:00 14.8 3 Sudeste 6 Nordeste 0 -- -- 85
2019-07-30 09:00:00 13.1 0 Calma 5 Nordeste 0 -- -- 89
2019-07-30 08:00:00 12.3 2 Nordeste 5 Noroeste 0 -- -- 92
2019-07-30 07:00:00 11.9 5 Nordeste 9 Nordeste 0 -- -- 93
2019-07-30 06:00:00 10.9 4 Norte 8 Oeste 0 -- -- 97
2019-07-30 05:00:00 11.4 0 Calma 5 Nordeste 0 -- -- 95
2019-07-30 04:00:00 11.2 0 Calma 5 Nordeste 0 -- -- 96
2019-07-30 03:00:00 11.5 3 Nordeste 9 Nordeste 0 -- -- 95
2019-07-30 02:00:00 12.9 2 Nordeste 5 Este 0 -- -- 91
2019-07-30 01:00:00 13.6 3 Norte 6 Nordeste 0 -- -- 91
2019-07-30 00:00:00 15 0 Calma 6 Este 0 -- -- 88
2019-07-29 23:00:00 16.1 0 Calma 10 Norte 0 -- -- 86
2019-07-29 22:00:00 16.6 4 Nordeste 11 Noroeste 0 -- -- 82
2019-07-29 21:00:00 17.7 4 Norte 12 Noroeste 0 -- -- 77
2019-07-29 20:00:00 18.5 5 Noroeste 15 Noroeste 0 -- -- 75
2019-07-29 19:00:00 19.5 5 Oeste 20 Sudoeste 0 -- -- 77
2019-07-29 18:00:00 20.3 5 Oeste 14 Oeste 0 -- -- 81
2019-07-29 17:00:00 20.1 4 Sudoeste 15 Noroeste 0 -- -- 84
2019-07-29 16:00:00 20.8 4 Sudoeste 9 Sudoeste 0 -- -- 78
2019-07-29 15:00:00 20.1 0 Calma 8 Norte 0 -- -- 78
2019-07-29 14:00:00 19.7 2 Noroeste 9 Noroeste 0 -- -- 79
2019-07-29 13:00:00 20.6 4 Oeste 18 Sudoeste 0 -- -- 75
2019-07-29 12:00:00 21.6 9 Sudoeste 23 Oeste 0 -- -- 73
2019-07-29 11:00:00 20 8 Sudoeste 16 Sudoeste 0 -- -- 78
2019-07-29 10:00:00 17.2 3 Norte 8 Sur 0 -- -- 87
2019-07-29 09:00:00 13.9 3 Norte 5 Norte 0 -- -- 97
2019-07-29 08:00:00 13.4 0 Calma 5 Norte 0 -- -- 99
2019-07-29 07:00:00 12.9 0 Calma 6 Norte 0 -- -- 96
2019-07-29 06:00:00 13.8 5 Noroeste 8 Oeste 0 -- -- 97
2019-07-29 05:00:00 13.3 3 Noroeste 5 Noroeste 0 -- -- 99
2019-07-29 04:00:00 13.9 4 Noroeste 6 Oeste 0 -- -- 98
2019-07-29 03:00:00 13.9 3 Norte 8 Norte 0 -- -- 100
2019-07-29 02:00:00 14.2 0 Calma 5 Oeste 0 -- -- 100
2019-07-29 01:00:00 14.7 0 Calma 5 Sudoeste 0 -- -- 99
2019-07-29 00:00:00 15.2 2 Norte 4 Norte 0 -- -- 99
2019-07-28 23:00:00 15.7 2 Norte 4 Norte 0 -- -- 97
2019-07-28 22:00:00 17 3 Norte 4 Norte 0 -- -- 92
2019-07-28 21:00:00 19.7 0 Calma 10 Sur 0 -- -- 85
2019-07-28 20:00:00 21.5 8 Sudoeste 13 Sudoeste 0 -- -- 76
2019-07-28 19:00:00 21.3 5 Oeste 16 Norte 0 -- -- 75
2019-07-28 18:00:00 22.4 7 Norte 18 Sudoeste 0 -- -- 73
2019-07-28 17:00:00 22.6 10 Noroeste 28 Sudoeste 0 -- -- 69
2019-07-28 16:00:00 23.7 8 Sudoeste 21 Sudoeste 0 -- -- 69
2019-07-28 15:00:00 23.3 5 Sur 22 Sudoeste 0 -- -- 73
2019-07-28 14:00:00 21.9 11 Sudoeste 22 Sudoeste 0 -- -- 68
2019-07-28 13:00:00 20.9 10 Sudoeste 19 Sudoeste 0 -- -- 67
2019-07-28 12:00:00 19.8 8 Sudoeste 13 Sudoeste 0 -- -- 76
2019-07-28 11:00:00 17.2 2 Sudeste 5 Este 0 -- -- 74
2019-07-28 10:00:00 14.3 2 Nordeste 5 Nordeste 0 -- -- 89
2019-07-28 09:00:00 10.6 0 Calma 5 Sur 0 -- -- 99
2019-07-28 08:00:00 10.3 0 Calma 5 Nordeste 0 -- -- 100
2019-07-28 07:00:00 10.4 0 Calma 4 Noroeste 0 -- -- 100
2019-07-28 06:00:00 10.7 0 Calma 4 Oeste 0 -- -- 100
2019-07-28 05:00:00 11 0 Calma 5 Sudoeste 0 -- -- 100
2019-07-28 04:00:00 11.3 2 Noroeste 4 Noroeste 0 -- -- 100
2019-07-28 03:00:00 12.4 0 Calma 4 Noroeste 0 -- -- 100
2019-07-28 02:00:00 12.3 0 Calma 5 Norte 0 -- -- 100
2019-07-28 01:00:00 12.5 0 Calma 4 Norte 0 -- -- 97
2019-07-28 00:00:00 14.3 3 Norte 4 Norte 0 -- -- 98
2019-07-27 23:00:00 14.5 0 Calma 4 Norte 0 -- -- 98
2019-07-26 12:00:00 -- -- -- -- -- -- -- -- --
2019-07-26 11:00:00 16.1 0 Calma 6 Sudoeste 0 -- -- 98
2019-07-26 10:00:00 15.4 0 Calma 8 Sur 0 -- -- 96
2019-07-26 09:00:00 15.1 0 Calma 8 Nordeste 0.2 -- -- 98
2019-07-26 08:00:00 15.1 8 Nordeste 10 Norte 1 -- -- 97
2019-07-26 07:00:00 15.7 3 Nordeste 11 Oeste 9.8 -- -- 100
2019-07-26 06:00:00 16.1 4 Oeste 12 Oeste 4.8 -- -- 100
2019-07-26 05:00:00 16.4 3 Noroeste 11 Noroeste 3 -- -- 100
2019-07-26 04:00:00 16.9 0 Calma 10 Nordeste 3.2 -- -- 100
2019-07-26 03:00:00 17.1 0 Calma 8 Sudoeste 0.6 -- -- 100
2019-07-26 02:00:00 17.1 0 Calma 8 Oeste 0.2 -- -- 100
2019-07-26 01:00:00 17.1 3 Oeste 13 Sudoeste 0.2 -- -- 99
2019-07-26 00:00:00 17.8 4 Oeste 17 Oeste 0.4 -- -- 97
2019-07-25 23:00:00 18 4 Noroeste 10 Noroeste 0 -- -- 97
2019-07-25 22:00:00 18.3 3 Noroeste 6 Oeste 0 -- -- 96
2019-07-25 21:00:00 18.9 0 Calma 8 Noroeste 0 -- -- 96
2019-07-25 20:00:00 20 4 Norte 10 Oeste 0 -- -- 89
2019-07-25 19:00:00 20.9 4 Oeste 12 Oeste 0 -- -- 80
2019-07-25 18:00:00 22 3 Sur 19 Oeste 0 -- -- 76
2019-07-25 17:00:00 23.8 6 Oeste 32 Sudoeste 0 -- -- 71
2019-07-25 16:00:00 26 10 Oeste 22 Oeste 0 -- -- 67
2019-07-25 15:00:00 24.8 10 Oeste 22 Oeste 0 -- -- 73
2019-07-25 14:00:00 26.5 10 Oeste 27 Sudoeste 0 -- -- 72
2019-07-25 13:00:00 26.2 10 Sudoeste 28 Sudoeste 0 -- -- 76
2019-07-25 12:00:00 23.2 3 Sudoeste 9 Sudoeste 0 -- -- 87
2019-07-25 11:00:00 22.9 3 Sudoeste 9 Sur 0 -- -- 83
2019-07-25 10:00:00 19.6 2 Sudoeste 6 Sudoeste 0 -- -- 100
2019-07-25 09:00:00 17.9 3 Oeste 7 Oeste 0 -- -- 100
2019-07-25 08:00:00 17.3 2 Norte 7 Oeste 0 -- -- 100
2019-07-25 07:00:00 17 0 Calma 5 Este 0 -- -- 98
2019-07-25 06:00:00 17.5 2 Este 5 Este 0 -- -- 97
2019-07-25 05:00:00 18.4 0 Calma 5 Este 0 -- -- 96
2019-07-25 04:00:00 19.4 0 Calma 10 Nordeste 0 -- -- 95
2019-07-25 03:00:00 19 0 Calma 4 Norte 0 -- -- 100
2019-07-25 02:00:00 19.5 2 Norte 4 Norte 0 -- -- 100
2019-07-25 01:00:00 19.5 0 Calma 4 Norte 0 -- -- 98
2019-07-25 00:00:00 21.1 0 Calma 3 Noroeste 0 -- -- 96
2019-07-24 23:00:00 21.2 0 Calma 5 Norte 0 -- -- 96
2019-07-24 22:00:00 21.1 0 Calma 9 Sur 0 -- -- 94
2019-07-24 21:00:00 23.8 3 Oeste 15 Sudoeste 0 -- -- 86
2019-07-24 20:00:00 26.4 6 Oeste 14 Sudoeste 0 -- -- 79
2019-07-24 19:00:00 28.5 5 Oeste 16 Sudoeste 0 -- -- 74
2019-07-24 18:00:00 29.1 6 Sudoeste 18 Sudoeste 0 -- -- 74
2019-07-24 17:00:00 29.5 8 Sudoeste 19 Oeste 0 -- -- 75
2019-07-24 16:00:00 29 9 Sudoeste 20 Sudoeste 0 -- -- 76
2019-07-24 15:00:00 28.1 8 Sudoeste 20 Oeste 0 -- -- 75
2019-07-24 14:00:00 25.9 6 Sudoeste 23 Sudoeste 0 -- -- 81
2019-07-24 13:00:00 23.7 9 Sudoeste 16 Oeste 0 -- -- 87
2019-07-24 12:00:00 21.9 8 Sudoeste 15 Sur 0 -- -- 88
2019-07-24 11:00:00 21 7 Sudoeste 15 Sudoeste 0 -- -- 93
2019-07-24 10:00:00 19.5 0 Calma 3 Noroeste 0 -- -- 96
2019-07-24 09:00:00 18.8 0 Calma 4 Oeste 0 -- -- 100
2019-07-24 08:00:00 18.6 2 Noroeste 6 Noroeste 0 -- -- 100
2019-07-24 07:00:00 18.7 0 Calma 4 Noroeste 0 -- -- 99
2019-07-24 06:00:00 18.7 0 Calma 4 Oeste 0 -- -- 100
2019-07-24 05:00:00 18.8 0 Calma 4 Oeste 0 -- -- 100
2019-07-24 04:00:00 18.9 0 Calma 4 Oeste 0 -- -- 100
2019-07-24 03:00:00 18.8 0 Calma 5 Norte 0 -- -- 100
2019-07-24 02:00:00 19 2 Noroeste 7 Norte 0 -- -- 99
2019-07-24 01:00:00 18.7 0 Calma 5 Norte 0 -- -- 100
2019-07-24 00:00:00 19.3 2 Norte 10 Norte 0.2 -- -- 97